createdAt,value
2023-03-03T00:00:28.300Z,101869.50
2023-03-03T00:02:58.197Z,101874.38
2023-03-03T00:05:25.127Z,101870.63
2023-03-03T00:07:52.173Z,101871.25
2023-03-03T00:10:19.018Z,101876.78
2023-03-03T00:12:48.684Z,101868.84
2023-03-03T00:15:20.891Z,101877.00
2023-03-03T00:17:48.266Z,101875.31
2023-03-03T00:20:38.348Z,101867.88
2023-03-03T00:23:22.705Z,101870.16
2023-03-03T00:25:51.754Z,101873.94
2023-03-03T00:28:32.370Z,101863.44
2023-03-03T00:31:01.548Z,101862.84
2023-03-03T00:33:32.588Z,101870.88
2023-03-03T00:36:10.666Z,101883.44
2023-03-03T00:38:37.584Z,101877.03
2023-03-03T00:41:15.336Z,101877.63
2023-03-03T00:43:42.281Z,101872.00
2023-03-03T00:46:10.101Z,101884.31
2023-03-03T00:48:36.972Z,101878.00
2023-03-03T00:51:22.907Z,101882.50
2023-03-03T00:53:50.534Z,101872.25
2023-03-03T00:56:17.288Z,101874.66
2023-03-03T00:58:48.238Z,101874.38
2023-03-03T01:01:18.811Z,101880.81
2023-03-03T01:03:49.839Z,101876.06
2023-03-03T01:06:17.083Z,101874.22
2023-03-03T01:08:44.085Z,101882.94
2023-03-03T01:11:16.553Z,101878.56
2023-03-03T01:13:44.971Z,101885.72
2023-03-03T01:16:11.910Z,101877.91
2023-03-03T01:18:40.372Z,101872.59
2023-03-03T01:21:07.472Z,101875.09
2023-03-03T01:23:34.728Z,101869.38
2023-03-03T01:26:01.604Z,101878.84
2023-03-03T01:28:28.438Z,101881.25
2023-03-03T01:30:55.395Z,101868.25
2023-03-03T01:33:22.420Z,101876.63
2023-03-03T01:35:49.452Z,101874.38
2023-03-03T01:38:16.420Z,101878.72
2023-03-03T01:40:44.630Z,101874.69
2023-03-03T01:43:16.151Z,101871.06
2023-03-03T01:46:02.940Z,101863.06
2023-03-03T01:48:42.611Z,101876.44
2023-03-03T01:51:26.586Z,101866.00
2023-03-03T01:53:56.244Z,101872.44
2023-03-03T01:56:23.109Z,101875.38
2023-03-03T01:58:55.265Z,101873.97
2023-03-03T02:01:25.889Z,101881.94
2023-03-03T02:03:56.252Z,101874.13
2023-03-03T02:06:27.014Z,101878.59
2023-03-03T02:09:19.235Z,101873.13
2023-03-03T02:11:47.627Z,101879.28
2023-03-03T02:14:14.416Z,101872.59
2023-03-03T02:16:43.508Z,101867.28
2023-03-03T02:19:36.040Z,101869.34
2023-03-03T02:22:03.490Z,101865.44
2023-03-03T02:24:37.661Z,101867.41
2023-03-03T02:27:05.114Z,101858.44
2023-03-03T02:29:32.163Z,101859.31
2023-03-03T02:32:01.052Z,101864.47
2023-03-03T02:34:27.987Z,101863.63
2023-03-03T02:36:54.946Z,101865.31
2023-03-03T02:39:26.910Z,101865.16
2023-03-03T02:42:13.592Z,101855.94
2023-03-03T02:44:46.145Z,101855.78
2023-03-03T02:47:13.036Z,101854.81
2023-03-03T02:49:39.908Z,101858.03
2023-03-03T02:52:12.039Z,101855.09
2023-03-03T02:54:41.565Z,101850.19
2023-03-03T02:57:09.129Z,101857.59
2023-03-03T02:59:36.081Z,101850.31
2023-03-03T03:02:09.756Z,101847.41
2023-03-03T03:04:36.633Z,101844.34
2023-03-03T03:07:04.738Z,101847.81
2023-03-03T03:09:34.393Z,101846.97
2023-03-03T03:12:02.691Z,101845.59
2023-03-03T03:14:33.111Z,101839.44
2023-03-03T03:17:00.119Z,101846.97
2023-03-03T03:19:28.479Z,101851.03
2023-03-03T03:21:56.793Z,101853.25
2023-03-03T03:24:23.582Z,101843.50
2023-03-03T03:26:57.847Z,101850.19
2023-03-03T03:29:26.522Z,101859.69
2023-03-03T03:31:53.926Z,101853.28
2023-03-03T03:34:20.793Z,101851.88
2023-03-03T03:36:49.577Z,101853.44
2023-03-03T03:39:17.662Z,101854.97
2023-03-03T03:41:47.139Z,101851.34
2023-03-03T03:44:14.153Z,101854.97
2023-03-03T03:46:40.956Z,101856.78
2023-03-03T03:49:08.280Z,101857.47
2023-03-03T03:51:38.257Z,101852.84
2023-03-03T03:54:05.889Z,101861.66
2023-03-03T03:56:35.079Z,101852.72
2023-03-03T03:59:02.789Z,101855.09
2023-03-03T04:01:29.573Z,101856.63
2023-03-03T04:03:57.694Z,101858.16
2023-03-03T04:06:25.273Z,101855.25
2023-03-03T04:08:52.945Z,101855.38
2023-03-03T04:11:22.313Z,101850.06
2023-03-03T04:13:49.345Z,101853.13
2023-03-03T04:16:16.585Z,101861.25
2023-03-03T04:18:46.392Z,101853.56
2023-03-03T04:21:15.379Z,101851.59
2023-03-03T04:23:42.868Z,101849.50
2023-03-03T04:26:10.568Z,101851.31
2023-03-03T04:28:38.148Z,101848.50
2023-03-03T04:31:05.475Z,101854.41
2023-03-03T04:33:33.318Z,101853.44
2023-03-03T04:36:01.358Z,101845.72
2023-03-03T04:38:28.230Z,101849.94
2023-03-03T04:40:57.042Z,101853.56
2023-03-03T04:43:25.903Z,101854.69
2023-03-03T04:45:54.155Z,101856.91
2023-03-03T04:48:22.073Z,101859.41
2023-03-03T04:50:49.147Z,101858.31
2023-03-03T04:53:16.157Z,101852.16
2023-03-03T04:55:43.531Z,101852.44
2023-03-03T04:58:10.864Z,101852.72
2023-03-03T05:00:39.254Z,101857.75
2023-03-03T05:03:07.834Z,101846.72
2023-03-03T05:05:34.679Z,101856.06
2023-03-03T05:08:01.433Z,101852.16
2023-03-03T05:10:28.350Z,101859.41
2023-03-03T05:12:55.323Z,101859.16
2023-03-03T05:15:22.172Z,101861.13
2023-03-03T05:17:49.260Z,101859.88
2023-03-03T05:20:16.766Z,101863.34
2023-03-03T05:22:43.570Z,101853.41
2023-03-03T05:25:12.823Z,101858.03
2023-03-03T05:27:39.793Z,101860.56
2023-03-03T05:30:07.293Z,101861.66
2023-03-03T05:32:34.118Z,101862.09
2023-03-03T05:35:00.977Z,101856.34
2023-03-03T05:37:27.785Z,101859.00
2023-03-03T05:39:54.661Z,101854.66
2023-03-03T05:42:22.088Z,101869.91
2023-03-03T05:44:48.961Z,101861.53
2023-03-03T05:47:15.787Z,101859.72
2023-03-03T05:49:42.670Z,101858.03
2023-03-03T05:52:09.795Z,101853.69
2023-03-03T05:54:36.599Z,101857.47
2023-03-03T05:57:03.470Z,101863.19
2023-03-03T05:59:30.299Z,101863.34
2023-03-03T06:01:57.485Z,101865.56
2023-03-03T06:04:24.338Z,101873.81
2023-03-03T06:06:51.247Z,101866.16
2023-03-03T06:09:19.301Z,101876.34
2023-03-03T06:11:46.199Z,101857.34
2023-03-03T06:14:13.154Z,101860.53
2023-03-03T06:16:40.101Z,101866.56
2023-03-03T06:19:06.850Z,101865.56
2023-03-03T06:21:33.719Z,101861.38
2023-03-03T06:24:00.518Z,101856.91
2023-03-03T06:26:27.326Z,101862.47
2023-03-03T06:28:55.338Z,101860.50
2023-03-03T06:31:22.248Z,101855.19
2023-03-03T06:33:49.411Z,101853.56
2023-03-03T06:36:16.217Z,101864.72
2023-03-03T06:38:43.118Z,101865.72
2023-03-03T06:41:10.248Z,101869.78
2023-03-03T06:43:37.379Z,101869.63
2023-03-03T06:46:05.130Z,101872.56
2023-03-03T06:48:32.760Z,101871.31
2023-03-03T06:51:04.199Z,101864.88
2023-03-03T06:53:33.169Z,101869.75
2023-03-03T06:56:01.908Z,101872.25
2023-03-03T06:58:29.631Z,101889.31
2023-03-03T07:01:01.172Z,101874.19
2023-03-03T07:03:34.940Z,101878.81
2023-03-03T07:06:04.068Z,101881.78
2023-03-03T07:08:32.594Z,101886.41
2023-03-03T07:11:07.823Z,101885.66
2023-03-03T07:13:34.747Z,101884.00
2023-03-03T07:16:06.668Z,101891.97
2023-03-03T07:18:51.032Z,101888.22
2023-03-03T07:21:37.975Z,101888.78
2023-03-03T07:24:30.311Z,101888.75
2023-03-03T07:27:07.999Z,101899.53
2023-03-03T07:29:35.817Z,101901.50
2023-03-03T07:32:03.016Z,101902.84
2023-03-03T07:34:42.754Z,101903.44
2023-03-03T07:37:29.411Z,101899.34
2023-03-03T07:39:56.578Z,101899.41
2023-03-03T07:42:29.147Z,101908.66
2023-03-03T07:45:25.333Z,101906.69
2023-03-03T07:47:52.231Z,101901.63
2023-03-03T07:50:21.694Z,101900.34
2023-03-03T07:53:00.375Z,101907.56
2023-03-03T07:55:31.908Z,101905.22
2023-03-03T07:58:27.058Z,101909.91
2023-03-03T08:01:18.716Z,101906.13
2023-03-03T08:03:47.080Z,101901.41
2023-03-03T08:06:29.881Z,101907.94
2023-03-03T08:09:02.773Z,101911.59
2023-03-03T08:11:29.657Z,101915.97
2023-03-03T08:13:56.885Z,101910.13
2023-03-03T08:16:38.624Z,101905.78
2023-03-03T08:19:06.224Z,101919.69
2023-03-03T08:21:34.361Z,101913.31
2023-03-03T08:24:01.245Z,101912.78
2023-03-03T08:26:28.111Z,101919.53
2023-03-03T08:28:55.927Z,101913.31
2023-03-03T08:31:39.737Z,101909.25
2023-03-03T08:34:07.770Z,101914.91
2023-03-03T08:36:35.136Z,101916.44
2023-03-03T08:39:03.041Z,101909.25
2023-03-03T08:41:29.800Z,101921.66
2023-03-03T08:43:56.646Z,101917.22
2023-03-03T08:46:23.579Z,101922.41
2023-03-03T08:48:50.531Z,101918.13
2023-03-03T08:51:17.391Z,101921.41
2023-03-03T08:53:44.170Z,101923.41
2023-03-03T08:56:10.933Z,101925.13
2023-03-03T08:58:37.843Z,101915.25
2023-03-03T09:01:05.129Z,101924.84
2023-03-03T09:03:32.156Z,101923.31
2023-03-03T09:05:59.230Z,101923.59
2023-03-03T09:08:26.073Z,101928.63
2023-03-03T09:10:52.815Z,101929.16
2023-03-03T09:13:20.521Z,101921.16
2023-03-03T09:15:47.948Z,101920.84
2023-03-03T09:18:22.823Z,101932.91
2023-03-03T09:20:51.441Z,101940.06
2023-03-03T09:23:24.462Z,101936.13
2023-03-03T09:25:52.800Z,101936.06
2023-03-03T09:28:27.553Z,101944.44
2023-03-03T09:30:57.143Z,101943.84
2023-03-03T09:33:25.585Z,101950.47
2023-03-03T09:36:04.562Z,101951.41
2023-03-03T09:38:33.383Z,101942.72
2023-03-03T09:41:28.712Z,101950.66
2023-03-03T09:44:04.757Z,101950.00
2023-03-03T09:46:58.714Z,101947.84
2023-03-03T09:49:34.456Z,101944.00
2023-03-03T09:52:16.308Z,101939.41
2023-03-03T09:54:51.768Z,101940.72
2023-03-03T09:57:32.541Z,101948.25
2023-03-03T10:00:20.223Z,101952.97
2023-03-03T10:02:54.531Z,101956.09
2023-03-03T10:05:48.891Z,101963.66
2023-03-03T10:09:17.634Z,101960.00
2023-03-03T10:11:53.273Z,101960.22
2023-03-03T10:14:26.143Z,101973.41
2023-03-03T10:17:26.695Z,101950.38
2023-03-03T10:20:02.473Z,101958.13
2023-03-03T10:22:52.996Z,101954.25
2023-03-03T10:25:19.772Z,101954.22
2023-03-03T10:28:07.828Z,101955.19
2023-03-03T10:31:10.738Z,101952.75
2023-03-03T10:33:53.919Z,101953.59
2023-03-03T10:36:45.229Z,101948.75
2023-03-03T10:39:14.985Z,101946.81
2023-03-03T10:42:26.949Z,101959.78
2023-03-03T10:45:14.217Z,101950.41
2023-03-03T10:47:54.006Z,101954.97
2023-03-03T10:50:45.628Z,101951.31
2023-03-03T10:53:23.572Z,101946.75
2023-03-03T10:55:53.313Z,101949.78
2023-03-03T10:58:38.234Z,101950.09
2023-03-03T11:01:10.147Z,101946.75
2023-03-03T11:04:15.875Z,101944.84
2023-03-03T11:06:48.517Z,101945.94
2023-03-03T11:09:33.488Z,101948.81
2023-03-03T11:12:20.170Z,101950.72
2023-03-03T11:15:13.803Z,101946.66
2023-03-03T11:18:00.099Z,101946.53
2023-03-03T11:20:45.680Z,101954.03
2023-03-03T11:23:43.310Z,101949.63
2023-03-03T11:26:30.327Z,101947.00
2023-03-03T11:29:16.053Z,101947.41
2023-03-03T11:32:00.997Z,101935.88
2023-03-03T11:34:42.932Z,101934.69
2023-03-03T11:37:20.674Z,101930.19
2023-03-03T11:39:49.585Z,101927.38
2023-03-03T11:42:33.118Z,101930.69
2023-03-03T11:45:03.858Z,101912.75
2023-03-03T11:47:37.576Z,101919.81
2023-03-03T11:50:05.935Z,101923.78
2023-03-03T11:52:53.462Z,101931.06
2023-03-03T11:55:26.712Z,101925.78
2023-03-03T11:58:14.022Z,101921.06
2023-03-03T12:01:04.081Z,101918.00
2023-03-03T12:03:44.652Z,101925.44
2023-03-03T12:06:46.212Z,101918.66
2023-03-03T12:09:15.255Z,101921.84
2023-03-03T12:11:48.398Z,101923.22
2023-03-03T12:14:54.748Z,101924.19
2023-03-03T12:17:27.241Z,101926.28
2023-03-03T12:20:16.173Z,101921.78
2023-03-03T12:23:06.485Z,101919.28
2023-03-03T12:25:38.746Z,101917.59
2023-03-03T12:28:23.115Z,101915.34
2023-03-03T12:31:06.073Z,101910.00
2023-03-03T12:33:56.872Z,101914.06
2023-03-03T12:36:42.584Z,101907.97
2023-03-03T12:39:45.537Z,101905.47
2023-03-03T12:42:20.510Z,101903.25
2023-03-03T12:44:48.693Z,101904.03
2023-03-03T12:47:23.144Z,101890.16
2023-03-03T12:50:20.827Z,101892.50
2023-03-03T12:53:02.781Z,101898.97
2023-03-03T12:55:41.895Z,101890.63
2023-03-03T12:58:32.044Z,101891.78
2023-03-03T13:01:11.275Z,101889.50
2023-03-03T13:03:56.594Z,101897.00
2023-03-03T13:06:46.681Z,101890.63
2023-03-03T13:09:35.634Z,101892.47
2023-03-03T13:12:11.496Z,101887.72
2023-03-03T13:15:09.260Z,101870.34
2023-03-03T13:17:57.318Z,101872.19
2023-03-03T13:20:41.904Z,101876.16
2023-03-03T13:23:52.112Z,101872.09
2023-03-03T13:26:31.970Z,101872.94
2023-03-03T13:29:01.170Z,101864.78
2023-03-03T13:31:35.566Z,101858.94
2023-03-03T13:34:02.826Z,101866.81
2023-03-03T13:36:34.787Z,101859.00
2023-03-03T13:39:15.577Z,101858.06
2023-03-03T13:41:47.108Z,101853.63
2023-03-03T13:44:37.011Z,101855.22
2023-03-03T13:47:13.937Z,101853.72
2023-03-03T13:50:05.948Z,101844.00
2023-03-03T13:52:55.871Z,101851.94
2023-03-03T13:55:26.862Z,101851.44
2023-03-03T13:58:01.638Z,101852.56
2023-03-03T14:00:39.088Z,101842.59
2023-03-03T14:03:29.526Z,101843.69
2023-03-03T14:06:05.620Z,101834.41
2023-03-03T14:08:48.220Z,101841.28
2023-03-03T14:11:27.359Z,101836.47
2023-03-03T14:13:58.244Z,101838.47
2023-03-03T14:16:34.284Z,101829.56
2023-03-03T14:19:11.633Z,101836.00
2023-03-03T14:21:49.543Z,101824.19
2023-03-03T14:24:21.284Z,101822.22
2023-03-03T14:26:52.624Z,101823.75
2023-03-03T14:29:21.913Z,101819.56
2023-03-03T14:31:49.309Z,101812.09
2023-03-03T14:34:36.010Z,101817.00
2023-03-03T14:37:30.002Z,101822.34
2023-03-03T14:40:10.122Z,101812.13
2023-03-03T14:42:54.623Z,101814.31
2023-03-03T14:45:33.791Z,101812.44
2023-03-03T14:48:26.381Z,101816.63
2023-03-03T14:50:59.169Z,101818.22
2023-03-03T14:53:36.132Z,101819.38
2023-03-03T14:56:28.975Z,101816.56
2023-03-03T14:59:18.728Z,101813.16
2023-03-03T15:01:46.507Z,101810.31
2023-03-03T15:04:16.428Z,101810.22
2023-03-03T15:06:45.672Z,101808.88
2023-03-03T15:09:35.764Z,101820.50
2023-03-03T15:12:22.774Z,101804.22
2023-03-03T15:15:02.944Z,101808.97
2023-03-03T15:17:33.946Z,101812.91
2023-03-03T15:20:18.590Z,101798.31
2023-03-03T15:22:48.380Z,101803.19
2023-03-03T15:25:41.885Z,101798.69
2023-03-03T15:28:32.060Z,101803.81
2023-03-03T15:31:37.155Z,101802.88
2023-03-03T15:34:19.587Z,101793.78
2023-03-03T15:37:31.158Z,101796.69
2023-03-03T15:40:16.655Z,101793.78
2023-03-03T15:43:03.037Z,101790.13
2023-03-03T15:45:46.262Z,101788.28
2023-03-03T15:48:31.351Z,101790.56
2023-03-03T15:51:07.324Z,101796.38
2023-03-03T15:53:52.566Z,101789.31
2023-03-03T15:56:22.029Z,101796.81
2023-03-03T15:59:09.983Z,101795.81
2023-03-03T16:01:42.260Z,101799.66
2023-03-03T16:04:15.290Z,101792.34
2023-03-03T16:06:50.644Z,101789.78
2023-03-03T16:09:40.136Z,101792.41
2023-03-03T16:12:25.933Z,101803.75
2023-03-03T16:15:30.342Z,101802.75
2023-03-03T16:18:15.912Z,101812.13
2023-03-03T16:21:03.931Z,101804.63
2023-03-03T16:23:49.146Z,101805.94
2023-03-03T16:26:40.348Z,101802.19
2023-03-03T16:29:19.253Z,101798.59
2023-03-03T16:31:50.074Z,101802.09
2023-03-03T16:34:25.181Z,101804.25
2023-03-03T16:37:02.666Z,101801.28
2023-03-03T16:39:35.761Z,101800.75
2023-03-03T16:42:24.571Z,101793.00
2023-03-03T16:45:15.800Z,101796.50
2023-03-03T16:47:53.110Z,101799.31
2023-03-03T16:50:38.568Z,101801.75
2023-03-03T16:53:27.568Z,101795.34
2023-03-03T16:56:09.411Z,101796.91
2023-03-03T16:58:48.653Z,101806.63
2023-03-03T17:01:51.341Z,101799.19
2023-03-03T17:04:18.111Z,101801.81
2023-03-03T17:06:55.358Z,101797.88
2023-03-03T17:09:42.193Z,101791.19
2023-03-03T17:12:16.349Z,101797.31
2023-03-03T17:14:56.708Z,101806.31
2023-03-03T17:17:43.390Z,101806.22
2023-03-03T17:20:19.531Z,101804.97
2023-03-03T17:22:58.636Z,101815.69
2023-03-03T17:25:45.904Z,101807.69
2023-03-03T17:28:27.702Z,101813.09
2023-03-03T17:31:12.540Z,101809.28
2023-03-03T17:33:54.461Z,101804.56
2023-03-03T17:36:24.816Z,101807.19
2023-03-03T17:39:04.356Z,101803.06
2023-03-03T17:42:09.389Z,101797.25
2023-03-03T17:45:10.264Z,101797.78
2023-03-03T17:47:52.663Z,101807.38
2023-03-03T17:50:25.538Z,101802.06
2023-03-03T17:53:14.277Z,101801.38
2023-03-03T17:55:55.618Z,101806.25
2023-03-03T17:58:33.172Z,101799.53
2023-03-03T18:01:21.767Z,101812.50
2023-03-03T18:04:19.800Z,101809.44
2023-03-03T18:06:56.683Z,101811.34
2023-03-03T18:09:34.860Z,101818.28
2023-03-03T18:12:30.828Z,101814.88
2023-03-03T18:15:10.807Z,101815.81
2023-03-03T18:18:09.969Z,101813.03
2023-03-03T18:20:45.879Z,101810.59
2023-03-03T18:23:27.954Z,101816.75
2023-03-03T18:26:06.175Z,101809.16
2023-03-03T18:28:50.488Z,101811.00
2023-03-03T18:31:28.235Z,101813.03
2023-03-03T18:34:02.885Z,101817.91
2023-03-03T18:36:29.617Z,101812.34
2023-03-03T18:38:57.884Z,101821.72
2023-03-03T18:41:30.944Z,101830.63
2023-03-03T18:44:04.690Z,101818.28
2023-03-03T18:46:31.931Z,101820.66
2023-03-03T18:49:09.529Z,101817.53
2023-03-03T18:51:39.617Z,101817.28
2023-03-03T18:54:12.765Z,101817.50
2023-03-03T18:57:12.347Z,101813.16
2023-03-03T18:59:42.076Z,101813.41
2023-03-03T19:02:30.137Z,101803.53
2023-03-03T19:05:03.939Z,101812.31
2023-03-03T19:07:51.288Z,101816.91
2023-03-03T19:10:21.588Z,101813.91
2023-03-03T19:12:52.980Z,101822.91
2023-03-03T19:15:34.024Z,101821.53
2023-03-03T19:18:02.028Z,101813.38
2023-03-03T19:20:43.618Z,101816.94
2023-03-03T19:23:19.738Z,101817.72
2023-03-03T19:25:46.921Z,101810.28
2023-03-03T19:28:22.728Z,101815.00
2023-03-03T19:31:07.358Z,101813.56
2023-03-03T19:33:52.508Z,101813.78
2023-03-03T19:36:45.021Z,101811.84
2023-03-03T19:39:33.409Z,101823.50
2023-03-03T19:42:00.237Z,101826.03
2023-03-03T19:44:36.880Z,101814.63
2023-03-03T19:47:05.728Z,101822.78
2023-03-03T19:49:41.866Z,101831.47
2023-03-03T19:52:22.050Z,101828.41
2023-03-03T19:55:24.138Z,101830.47
2023-03-03T19:57:58.547Z,101824.44
2023-03-03T20:00:42.933Z,101822.31
2023-03-03T20:03:37.311Z,101821.25
2023-03-03T20:06:17.167Z,101816.75
2023-03-03T20:09:08.913Z,101819.19
2023-03-03T20:11:48.903Z,101818.53
2023-03-03T20:14:36.809Z,101817.91
2023-03-03T20:17:17.513Z,101818.41
2023-03-03T20:20:27.758Z,101817.34
2023-03-03T20:23:03.719Z,101818.19
2023-03-03T20:25:49.800Z,101817.56
2023-03-03T20:28:54.267Z,101831.06
2023-03-03T20:31:29.860Z,101818.19
2023-03-03T20:34:08.600Z,101825.22
2023-03-03T20:36:47.049Z,101822.34
2023-03-03T20:39:31.318Z,101826.16
2023-03-03T20:42:25.856Z,101828.19
2023-03-03T20:45:19.170Z,101830.34
2023-03-03T20:47:52.524Z,101829.88
2023-03-03T20:50:28.823Z,101829.56
2023-03-03T20:53:18.955Z,101829.09
2023-03-03T20:56:12.054Z,101823.97
2023-03-03T20:58:47.782Z,101827.47
2023-03-03T21:01:16.987Z,101823.47
2023-03-03T21:03:47.911Z,101826.56
2023-03-03T21:06:18.114Z,101827.25
2023-03-03T21:08:56.349Z,101823.91
2023-03-03T21:11:32.376Z,101825.06
2023-03-03T21:13:59.975Z,101826.47
2023-03-03T21:16:26.717Z,101817.59
2023-03-03T21:19:00.481Z,101818.28
2023-03-03T21:21:30.370Z,101821.25
2023-03-03T21:23:59.212Z,101814.78
2023-03-03T21:26:45.052Z,101822.28
2023-03-03T21:29:27.120Z,101823.47
2023-03-03T21:31:59.047Z,101825.38
2023-03-03T21:34:37.276Z,101823.03
2023-03-03T21:37:06.666Z,101827.63
2023-03-03T21:39:36.094Z,101829.47
2023-03-03T21:42:08.849Z,101827.06
2023-03-03T21:44:53.988Z,101827.78
2023-03-03T21:47:22.635Z,101839.06
2023-03-03T21:49:50.933Z,101830.47
2023-03-03T21:52:19.719Z,101840.28
2023-03-03T21:54:47.768Z,101829.22
2023-03-03T21:57:14.862Z,101836.59
2023-03-03T21:59:41.712Z,101834.25
2023-03-03T22:02:09.118Z,101840.94
2023-03-03T22:04:38.479Z,101838.47
2023-03-03T22:07:05.592Z,101831.78
2023-03-03T22:09:32.436Z,101834.91
2023-03-03T22:11:59.389Z,101833.59
2023-03-03T22:14:26.290Z,101838.91
2023-03-03T22:16:53.145Z,101826.81
2023-03-03T22:19:20.134Z,101829.09
2023-03-03T22:21:47.471Z,101827.38
2023-03-03T22:24:14.312Z,101832.75
2023-03-03T22:26:41.173Z,101828.06
2023-03-03T22:29:08.311Z,101835.34
2023-03-03T22:31:35.213Z,101836.19
2023-03-03T22:34:02.365Z,101833.97
2023-03-03T22:36:29.192Z,101835.63
2023-03-03T22:38:56.138Z,101832.16
2023-03-03T22:41:23.076Z,101835.38
2023-03-03T22:43:50.087Z,101831.59
2023-03-03T22:46:16.980Z,101827.66
2023-03-03T22:48:43.817Z,101823.63
2023-03-03T22:51:10.639Z,101824.31
2023-03-03T22:53:37.455Z,101828.22
2023-03-03T22:56:04.543Z,101832.84
2023-03-03T22:58:31.416Z,101827.81
2023-03-03T23:00:58.224Z,101827.25
2023-03-03T23:03:25.270Z,101829.09
2023-03-03T23:05:52.300Z,101822.78
2023-03-03T23:08:20.605Z,101829.50
2023-03-03T23:10:47.945Z,101822.78
2023-03-03T23:13:14.887Z,101827.25
2023-03-03T23:15:41.756Z,101816.50
2023-03-03T23:18:08.670Z,101816.75
2023-03-03T23:20:35.769Z,101820.53
2023-03-03T23:23:03.022Z,101820.97
2023-03-03T23:25:30.322Z,101819.28
2023-03-03T23:27:57.357Z,101823.47
2023-03-03T23:30:24.832Z,101815.22
2023-03-03T23:32:51.819Z,101815.75
2023-03-03T23:35:19.123Z,101814.22
2023-03-03T23:37:46.207Z,101814.06
2023-03-03T23:40:14.772Z,101820.94
2023-03-03T23:42:41.567Z,101809.88
2023-03-03T23:45:09.653Z,101817.72
2023-03-03T23:47:36.521Z,101813.53
2023-03-03T23:50:04.505Z,101801.56
2023-03-03T23:52:31.361Z,101804.66
2023-03-03T23:54:58.206Z,101815.31
2023-03-03T23:57:25.001Z,101813.03
2023-03-03T23:59:51.829Z,101811.56
